Terminal Aerodrome Forecast
Issued by NWS Sterling, VA

Current Version | Previous Version | Graphics & Text | Print | Product List | Glossary On
Versions: 1 2 3 4 5 6 7 8 9 10 11 12 13 14 15 16 17 18 19 20 21
000
FTUS41 KLWX 261501 AAA
TAFDCA
TAF AMD
KDCA 261501Z 2615/2712 02005KT P6SM SCT120
     FM261700 35008KT P6SM SCT090
     FM262200 30007KT P6SM BKN090
     FM270200 VRB03KT P6SM BKN100=

USA.gov is the U.S. government's official web portal to all federal, state and local government web resources and services.